Time;durP1;ratioP1;P1;durP2;ratioP2;P2;SDS_P1;SDS_P2;PMS_P1;PMS_P2;Temp;Humidity;BMP_temperature;BMP_pressure;BME280_temperature;BME280_humidity;BME280_pressure;Samples;Min_cycle;Max_cycle;Signal;HPM_P1;HPM_P2
2022/10/03 13:23:18;;;;;;;581.33;546.47;;;20.10;3.20;;;;;;5068327;28;20984;-69
2022/10/03 13:25:59;;;;;;;610.23;575.07;;;18.70;3.60;;;;;;5066340;28;20530;-69
2022/10/03 13:28:34;;;;;;;627.20;591.90;;;18.10;6.20;;;;;;5049195;28;20954;-68
2022/10/03 13:31:24;;;;;;;619.10;581.53;;;17.20;5.90;;;;;;5048505;28;20417;-69
2022/10/03 13:34:03;;;;;;;520.33;492.50;;;16.40;6.70;;;;;;5049104;28;20499;-69
2022/10/03 13:36:43;;;;;;;429.60;405.87;;;16.00;7.80;;;;;;5049484;28;20839;-69
2022/10/03 13:39:18;;;;;;;537.33;507.83;;;16.10;8.00;;;;;;5065983;28;20412;-69
2022/10/03 13:41:58;;;;;;;480.10;454.83;;;15.50;7.50;;;;;;5068917;28;20459;-71
2022/10/03 13:44:36;;;;;;;353.17;333.53;;;15.60;8.20;;;;;;5068734;28;20565;-71
2022/10/03 13:47:26;;;;;;;372.37;351.77;;;15.70;9.10;;;;;;5068762;28;20452;-70
2022/10/03 13:50:00;;;;;;;519.63;492.10;;;15.90;7.60;;;;;;5063739;28;20555;-70
2022/10/03 13:53:07;;;;;;;547.03;519.37;;;15.90;8.40;;;;;;5048442;28;20765;-70
2022/10/03 13:55:38;;;;;;;448.70;424.47;;;16.00;7.60;;;;;;5045870;28;20421;-70
2022/10/03 13:58:38;;;;;;;520.47;493.67;;;15.80;8.20;;;;;;5048800;28;20425;-70
2022/10/03 14:01:12;;;;;;;467.30;442.57;;;15.80;9.20;;;;;;5048041;28;20449;-70
2022/10/03 14:03:47;;;;;;;611.10;574.20;;;15.80;8.40;;;;;;5053003;28;20463;-71
2022/10/03 14:06:34;;;;;;;570.30;539.50;;;15.70;7.90;;;;;;5060508;28;20518;-71
2022/10/03 14:09:20;;;;;;;427.73;406.40;;;15.60;8.00;;;;;;5061162;28;20446;-71
2022/10/03 14:12:22;;;;;;;438.60;415.07;;;15.40;9.20;;;;;;5063766;28;20526;-70
2022/10/03 14:15:17;;;;;;;452.53;429.20;;;15.40;8.60;;;;;;5067888;28;20454;-68
2022/10/03 14:18:18;;;;;;;442.13;418.67;;;15.40;9.00;;;;;;5067515;28;20497;-67
2022/10/03 14:21:16;;;;;;;691.70;649.37;;;15.20;8.70;;;;;;5067172;28;20463;-68
2022/10/03 14:23:49;;;;;;;455.20;431.47;;;15.30;9.20;;;;;;5047817;28;20450;-69
2022/10/03 14:26:28;;;;;;;488.27;464.10;;;15.40;8.40;;;;;;5051986;28;20771;-69
2022/10/03 14:29:06;;;;;;;516.57;489.30;;;15.40;8.20;;;;;;5047457;28;20411;-69
2022/10/03 14:31:41;;;;;;;465.50;440.13;;;15.50;8.30;;;;;;5047670;28;20417;-68
2022/10/03 14:34:18;;;;;;;504.93;477.33;;;15.50;8.00;;;;;;5048372;28;20419;-69
2022/10/03 14:36:52;;;;;;;443.30;420.60;;;15.50;8.10;;;;;;5054328;28;20803;-69
2022/10/03 14:39:25;;;;;;;518.50;493.30;;;15.50;7.10;;;;;;5053767;28;20740;-70
2022/10/03 14:41:54;;;;;;;484.60;459.83;;;15.40;8.00;;;;;;5052586;28;21001;-69
2022/10/03 14:44:43;;;;;;;387.33;366.40;;;15.40;8.90;;;;;;5054358;28;20494;-69
2022/10/03 14:47:17;;;;;;;429.83;406.60;;;15.40;9.30;;;;;;5042288;28;20441;-69
2022/10/03 14:49:54;;;;;;;442.10;419.53;;;15.40;9.30;;;;;;5054132;28;20491;-68
2022/10/03 14:52:44;;;;;;;401.53;381.43;;;15.50;10.40;;;;;;5053887;28;20848;-68
2022/10/03 14:55:15;;;;;;;573.10;540.03;;;15.40;10.80;;;;;;5050426;28;20413;-67
2022/10/03 14:57:53;;;;;;;386.20;367.27;;;15.20;11.10;;;;;;5048941;28;20437;-68
2022/10/03 15:00:44;;;;;;;384.50;365.37;;;15.20;12.00;;;;;;5049565;28;20420;-68
2022/10/03 15:03:16;;;;;;;451.07;428.07;;;15.30;11.50;;;;;;5050596;28;20794;-68
2022/10/03 15:06:09;;;;;;;601.23;569.87;;;15.30;11.60;;;;;;5048358;28;20433;-69
2022/10/03 15:08:46;;;;;;;698.63;651.30;;;15.40;11.50;;;;;;5049714;28;20519;-68
2022/10/03 15:11:15;;;;;;;531.27;496.23;;;15.20;11.90;;;;;;5045525;28;20508;-68
2022/10/03 15:13:53;;;;;;;436.17;414.07;;;15.00;12.10;;;;;;5029805;28;20422;-70
2022/10/03 15:16:21;;;;;;;408.63;387.53;;;14.80;12.10;;;;;;5029680;28;20501;-69
2022/10/03 15:18:53;;;;;;;484.60;454.80;;;14.80;13.00;;;;;;5030478;28;21050;-68
2022/10/03 15:21:20;;;;;;;571.77;537.57;;;14.90;12.20;;;;;;5033523;28;21293;-68
2022/10/03 15:23:52;;;;;;;445.97;422.07;;;14.70;12.20;;;;;;5052370;28;20511;-72
2022/10/03 15:26:20;;;;;;;470.63;442.53;;;14.80;12.00;;;;;;5047120;28;20437;-69
2022/10/03 15:28:52;;;;;;;367.17;348.70;;;14.80;12.30;;;;;;5033276;28;20919;-68
2022/10/03 15:31:25;;;;;;;508.57;482.37;;;14.80;12.10;;;;;;5039263;28;20523;-68
2022/10/03 15:33:52;;;;;;;414.63;389.80;;;14.90;11.70;;;;;;5053211;28;20421;-69
2022/10/03 15:36:32;;;;;;;540.17;508.40;;;14.80;11.00;;;;;;5053047;28;20413;-68
2022/10/03 15:39:01;;;;;;;686.93;642.23;;;14.70;11.30;;;;;;5053432;28;20428;-68
2022/10/03 15:41:38;;;;;;;542.63;511.97;;;14.60;12.30;;;;;;5042650;28;20468;-68
2022/10/03 15:44:22;;;;;;;305.63;289.93;;;14.50;12.10;;;;;;5031447;28;20424;-69
2022/10/03 15:46:52;;;;;;;394.60;373.03;;;14.60;12.80;;;;;;5033177;28;20520;-69
2022/10/03 15:49:35;;;;;;;391.33;370.30;;;14.50;12.40;;;;;;5031946;28;20416;-70
2022/10/03 15:52:43;;;;;;;387.90;367.90;;;14.50;12.50;;;;;;5046543;28;20449;-70
2022/10/03 15:55:25;;;;;;;407.27;382.87;;;14.60;11.90;;;;;;5049580;28;20431;-70
2022/10/03 15:57:58;;;;;;;251.00;236.63;;;14.80;11.90;;;;;;5044521;28;20530;-70
2022/10/03 16:00:30;;;;;;;424.30;397.23;;;14.80;11.70;;;;;;5052814;28;20443;-69
2022/10/03 16:03:10;;;;;;;390.23;367.27;;;14.80;12.10;;;;;;5052555;28;20733;-70
2022/10/03 16:06:02;;;;;;;441.63;419.43;;;14.90;11.50;;;;;;5051389;28;20431;-69
2022/10/03 16:08:31;;;;;;;595.73;557.67;;;15.00;11.10;;;;;;5051511;28;20482;-69
2022/10/03 16:11:02;;;;;;;390.97;371.77;;;14.80;11.30;;;;;;5050850;28;20451;-69
2022/10/03 16:13:38;;;;;;;419.10;398.47;;;14.70;11.30;;;;;;5052509;28;20900;-69
2022/10/03 16:16:36;;;;;;;694.63;648.03;;;14.50;11.40;;;;;;5041104;28;20426;-69
2022/10/03 16:19:24;;;;;;;346.27;328.17;;;14.40;12.50;;;;;;5037502;28;20965;-69
2022/10/03 16:22:06;;;;;;;439.87;412.17;;;14.30;12.20;;;;;;5051786;28;20475;-69
2022/10/03 16:24:39;;;;;;;490.87;459.23;;;14.30;12.60;;;;;;5051025;28;20796;-69
2022/10/03 16:27:15;;;;;;;377.67;353.50;;;14.30;12.60;;;;;;5039034;28;20449;-69
2022/10/03 16:29:52;;;;;;;437.30;410.27;;;14.30;12.60;;;;;;5032452;28;20413;-69
2022/10/03 16:32:24;;;;;;;324.97;305.80;;;14.40;12.70;;;;;;5035653;28;20448;-69
2022/10/03 16:34:50;;;;;;;515.37;483.53;;;14.30;12.60;;;;;;5033205;28;20425;-68
2022/10/03 16:37:21;;;;;;;546.57;509.77;;;14.20;12.60;;;;;;5032211;28;20434;-68
2022/10/03 16:40:03;;;;;;;562.67;526.67;;;14.20;13.10;;;;;;5036724;28;20864;-69
2022/10/03 16:42:44;;;;;;;586.93;546.63;;;14.20;12.90;;;;;;5051662;28;20858;-69
2022/10/03 16:45:33;;;;;;;535.33;499.87;;;14.10;13.50;;;;;;5052135;28;20476;-69
2022/10/03 16:50:50;;;;;;;382.37;358.47;;;13.90;13.30;;;;;;5050748;28;20943;-69
2022/10/03 16:53:17;;;;;;;510.40;477.57;;;13.80;14.20;;;;;;5050895;28;20811;-67
2022/10/03 16:55:48;;;;;;;586.67;549.47;;;13.70;14.10;;;;;;5051088;28;20430;-67
2022/10/03 16:58:19;;;;;;;517.33;486.07;;;13.60;14.70;;;;;;5052062;28;20805;-68
2022/10/03 17:00:55;;;;;;;205.80;193.27;;;13.50;14.30;;;;;;5051687;28;20980;-70
2022/10/03 17:03:25;;;;;;;360.37;339.30;;;13.30;15.20;;;;;;5033358;28;20829;-69
2022/10/03 17:05:54;;;;;;;289.63;272.67;;;13.20;15.10;;;;;;5032166;28;20425;-70
2022/10/03 17:08:24;;;;;;;529.63;497.50;;;13.20;15.80;;;;;;5031853;28;20430;-70
2022/10/03 17:11:00;;;;;;;396.37;373.23;;;13.00;16.10;;;;;;5031720;28;20532;-70
2022/10/03 17:13:44;;;;;;;445.83;418.87;;;12.90;16.20;;;;;;5035199;28;20816;-70
2022/10/03 17:16:32;;;;;;;327.40;310.97;;;12.90;16.20;;;;;;5051592;28;20521;-70
2022/10/03 17:19:30;;;;;;;574.07;543.03;;;12.80;16.90;;;;;;5051750;28;20482;-70
2022/10/03 17:22:09;;;;;;;554.00;521.40;;;12.70;17.80;;;;;;5051344;28;20911;-69
2022/10/03 17:24:57;;;;;;;597.00;566.63;;;12.60;17.90;;;;;;5051731;28;20912;-70
2022/10/03 17:27:30;;;;;;;446.53;425.50;;;12.50;18.50;;;;;;5050373;28;20946;-70
2022/10/03 17:30:11;;;;;;;373.10;352.03;;;12.40;18.70;;;;;;5051614;28;20425;-70
2022/10/03 17:32:44;;;;;;;371.43;350.83;;;12.40;19.50;;;;;;5051146;28;20500;-70
2022/10/03 17:35:17;;;;;;;384.90;363.50;;;12.30;20.50;;;;;;5051603;28;20425;-70
2022/10/03 17:38:19;;;;;;;632.83;594.53;;;12.30;19.90;;;;;;5050692;28;20430;-70
2022/10/03 17:41:33;;;;;;;297.33;281.67;;;12.30;20.70;;;;;;5029913;28;20831;-70
2022/10/03 17:44:21;;;;;;;435.03;409.90;;;12.20;21.60;;;;;;5030360;28;20430;-68
2022/10/03 17:47:17;;;;;;;238.23;225.33;;;12.00;22.30;;;;;;5036150;28;20444;-68
2022/10/03 17:50:24;;;;;;;428.80;407.50;;;11.90;23.30;;;;;;5036001;28;20425;-68
2022/10/03 17:52:52;;;;;;;842.20;791.93;;;11.70;23.30;;;;;;5009027;28;20419;-68
2022/10/03 17:55:29;;;;;;;633.27;596.77;;;11.70;23.40;;;;;;5010540;28;20523;-67
2022/10/03 17:58:18;;;;;;;653.93;615.33;;;11.70;24.30;;;;;;5013692;28;20943;-68
2022/10/03 18:00:43;;;;;;;758.57;713.13;;;11.70;23.80;;;;;;5031440;28;20898;-67
2022/10/03 18:03:19;;;;;;;354.80;334.93;;;11.70;23.80;;;;;;5031365;28;20417;-67
2022/10/03 18:05:47;;;;;;;709.67;667.37;;;11.60;23.70;;;;;;5045985;28;20185;-68
2022/10/03 18:08:27;;;;;;;443.23;419.80;;;11.50;23.90;;;;;;5033992;28;20452;-67
2022/10/03 18:10:55;;;;;;;236.10;224.67;;;11.40;24.40;;;;;;5034960;28;20436;-67
2022/10/03 18:13:46;;;;;;;684.67;641.07;;;11.30;24.60;;;;;;5035313;28;20413;-67
2022/10/03 18:16:13;;;;;;;607.97;572.80;;;11.30;24.60;;;;;;5045663;28;20478;-68
2022/10/03 18:18:58;;;;;;;360.57;339.90;;;11.20;25.10;;;;;;5054967;28;20418;-67
2022/10/03 18:21:50;;;;;;;564.07;530.90;;;11.20;24.80;;;;;;5041384;28;20464;-69
2022/10/03 18:24:30;;;;;;;392.63;368.60;;;11.10;25.20;;;;;;5034960;28;20496;-68
2022/10/03 18:27:32;;;;;;;190.20;180.17;;;11.00;25.20;;;;;;5045514;28;20446;-68
2022/10/03 18:30:06;;;;;;;221.90;211.80;;;10.90;25.40;;;;;;5054725;28;21118;-68
2022/10/03 18:32:38;;;;;;;567.47;535.07;;;10.80;25.80;;;;;;5054396;28;20411;-69
2022/10/03 18:35:19;;;;;;;757.07;709.13;;;10.70;25.80;;;;;;5054707;28;20412;-69
2022/10/03 18:37:44;;;;;;;699.87;659.97;;;10.70;25.90;;;;;;5065893;28;20450;-69
2022/10/03 18:40:20;;;;;;;589.17;556.67;;;10.60;25.70;;;;;;5033393;28;20439;-69
2022/10/03 18:42:49;;;;;;;555.20;522.00;;;10.50;26.20;;;;;;5074184;28;20239;-69
2022/10/03 18:45:20;;;;;;;733.10;686.10;;;10.50;26.60;;;;;;5075873;28;20419;-69
2022/10/03 18:47:52;;;;;;;653.30;611.77;;;10.50;26.60;;;;;;5075468;28;20949;-69
2022/10/03 18:50:43;;;;;;;1017.73;950.40;;;10.50;26.90;;;;;;5075396;28;20469;-69
2022/10/03 18:53:30;;;;;;;677.10;638.23;;;10.60;26.60;;;;;;5057420;28;20416;-71
2022/10/03 18:56:01;;;;;;;514.87;485.37;;;10.50;26.30;;;;;;5056217;28;20464;-69
2022/10/03 18:58:31;;;;;;;262.07;246.03;;;10.40;26.50;;;;;;5056268;28;20495;-70
2022/10/03 19:01:16;;;;;;;200.37;189.40;;;10.30;27.00;;;;;;5055490;28;20552;-69
2022/10/03 19:03:57;;;;;;;630.50;599.63;;;10.10;26.80;;;;;;5055285;28;20417;-70
2022/10/03 19:06:40;;;;;;;329.53;312.03;;;10.10;26.80;;;;;;5053716;28;20922;-69
2022/10/03 19:09:18;;;;;;;529.57;497.90;;;10.10;26.80;;;;;;5054226;28;20555;-71
2022/10/03 19:12:08;;;;;;;812.83;764.03;;;10.10;26.80;;;;;;5055015;28;20441;-69
2022/10/03 19:14:51;;;;;;;805.20;754.87;;;10.00;26.70;;;;;;5055405;28;20470;-69
2022/10/03 19:17:24;;;;;;;605.33;569.77;;;10.00;27.80;;;;;;5055004;28;20983;-69
2022/10/03 19:19:52;;;;;;;511.23;480.63;;;10.00;27.50;;;;;;5054468;28;20444;-69
2022/10/03 19:22:36;;;;;;;672.90;632.87;;;10.00;27.50;;;;;;5054169;28;20471;-67
2022/10/03 19:25:05;;;;;;;817.27;771.70;;;9.90;27.90;;;;;;5054328;28;20419;-67
2022/10/03 19:27:51;;;;;;;571.17;539.03;;;9.80;28.20;;;;;;5035752;28;20487;-68
2022/10/03 19:30:19;;;;;;;723.47;681.70;;;9.80;27.80;;;;;;5034705;28;20412;-67
2022/10/03 19:32:58;;;;;;;613.00;575.20;;;9.70;28.10;;;;;;5034492;28;20511;-67
2022/10/03 19:35:24;;;;;;;367.57;346.20;;;9.70;28.30;;;;;;5056729;23;20501;-69
2022/10/03 19:38:05;;;;;;;186.57;176.87;;;9.70;27.80;;;;;;5035978;28;20482;-70
2022/10/03 19:40:59;;;;;;;586.60;557.20;;;9.60;27.70;;;;;;5035519;28;20406;-69
2022/10/03 19:43:40;;;;;;;302.63;289.30;;;9.50;28.60;;;;;;5035463;28;20821;-70
2022/10/03 19:46:27;;;;;;;235.73;221.80;;;9.50;28.10;;;;;;5034892;28;20432;-70
2022/10/03 19:49:21;;;;;;;223.70;210.27;;;9.40;28.80;;;;;;5035038;28;20412;-70
2022/10/03 19:51:47;;;;;;;648.07;609.70;;;9.40;29.20;;;;;;5033426;28;20454;-69
2022/10/03 19:54:30;;;;;;;664.87;625.53;;;9.40;30.00;;;;;;5033716;28;20417;-70
2022/10/03 19:56:57;;;;;;;732.40;690.07;;;9.40;29.30;;;;;;5034845;28;20421;-69
2022/10/03 19:59:42;;;;;;;476.27;449.33;;;9.40;29.50;;;;;;5034929;28;20510;-69
2022/10/03 20:02:09;;;;;;;806.43;761.67;;;9.40;29.10;;;;;;5034933;28;20468;-70
2022/10/03 20:04:36;;;;;;;454.27;430.67;;;9.40;29.50;;;;;;5035203;28;20423;-70
2022/10/03 20:07:10;;;;;;;617.77;583.47;;;9.40;28.80;;;;;;5034889;28;20438;-69
2022/10/03 20:09:37;;;;;;;739.83;698.80;;;9.40;28.80;;;;;;5034999;28;20412;-70
2022/10/03 20:12:08;;;;;;;211.53;199.30;;;9.40;28.80;;;;;;5034098;28;20413;-69
2022/10/03 20:14:36;;;;;;;619.00;583.07;;;9.30;29.00;;;;;;5034400;28;20460;-69
2022/10/03 20:17:17;;;;;;;522.57;493.10;;;9.30;29.40;;;;;;5033951;28;20411;-69
2022/10/03 20:20:06;;;;;;;98.40;92.37;;;9.10;29.40;;;;;;5034625;28;20803;-69
2022/10/03 20:22:37;;;;;;;437.07;413.47;;;9.10;30.00;;;;;;5033850;28;20518;-69
2022/10/03 20:25:18;;;;;;;14.70;13.10;;;9.00;30.60;;;;;;5032460;28;20475;-69
2022/10/03 20:27:50;;;;;;;240.23;229.57;;;8.90;31.00;;;;;;5033802;28;20422;-69
2022/10/03 20:30:40;;;;;;;59.80;56.70;;;8.90;31.00;;;;;;5033402;28;20450;-69
2022/10/03 20:33:07;;;;;;;395.60;374.93;;;8.80;30.90;;;;;;5032353;28;20795;-68
2022/10/03 20:36:01;;;;;;;336.40;318.33;;;8.80;30.90;;;;;;5032394;28;20470;-70
2022/10/03 20:38:26;;;;;;;569.33;538.37;;;8.70;30.80;;;;;;5033558;28;20409;-69
2022/10/03 20:41:08;;;;;;;434.03;412.60;;;8.80;31.70;;;;;;5033369;28;20405;-69
2022/10/03 20:44:04;;;;;;;10.57;9.47;;;8.80;30.90;;;;;;5033771;28;20255;-69
2022/10/03 20:46:45;;;;;;;335.20;318.43;;;8.80;30.90;;;;;;5034103;28;20440;-69
2022/10/03 20:49:26;;;;;;;148.17;141.77;;;8.80;30.90;;;;;;5034110;28;20406;-69
2022/10/03 20:51:51;;;;;;;239.23;225.67;;;8.70;30.80;;;;;;5033728;28;20410;-70
2022/10/03 20:54:20;;;;;;;672.30;634.30;;;8.70;30.80;;;;;;5033353;28;20441;-69
2022/10/03 20:57:00;;;;;;;695.27;658.50;;;8.70;32.60;;;;;;5033285;28;20207;-69
2022/10/03 20:59:40;;;;;;;446.07;421.97;;;8.80;31.20;;;;;;5033001;28;20478;-69
2022/10/03 21:02:23;;;;;;;615.27;583.87;;;8.80;30.90;;;;;;5032910;28;20463;-70
2022/10/03 21:05:03;;;;;;;586.33;557.50;;;8.80;31.80;;;;;;5032983;28;20429;-68
2022/10/03 21:07:33;;;;;;;595.53;562.43;;;8.80;31.40;;;;;;5030784;28;20425;-68
2022/10/03 21:10:32;;;;;;;452.00;427.53;;;8.70;31.40;;;;;;5031949;28;20549;-69
2022/10/03 21:13:07;;;;;;;358.60;339.87;;;8.70;31.70;;;;;;5031802;28;20425;-69
2022/10/03 21:15:35;;;;;;;621.30;588.73;;;8.70;31.90;;;;;;5031826;28;20916;-68
2022/10/03 21:18:02;;;;;;;113.10;107.20;;;8.60;31.80;;;;;;5032034;28;20454;-69
2022/10/03 21:20:36;;;;;;;658.53;622.30;;;8.70;31.10;;;;;;5031996;28;20419;-69
2022/10/03 21:23:13;;;;;;;588.00;555.70;;;8.60;32.50;;;;;;5031635;28;20784;-69
2022/10/03 21:25:40;;;;;;;451.97;430.63;;;8.60;31.70;;;;;;5031609;28;20426;-69
2022/10/03 21:28:21;;;;;;;124.67;118.83;;;8.70;30.80;;;;;;5031833;28;20423;-69
2022/10/03 21:31:19;;;;;;;418.00;396.97;;;8.60;31.50;;;;;;5031697;28;20416;-69
2022/10/03 21:34:00;;;;;;;550.20;521.90;;;8.50;32.20;;;;;;5030388;28;20505;-69
2022/10/03 21:36:45;;;;;;;237.07;227.10;;;8.50;32.00;;;;;;5031701;28;20945;-68
2022/10/03 21:39:21;;;;;;;345.13;327.60;;;8.50;31.30;;;;;;5031799;28;20953;-69
2022/10/03 21:41:56;;;;;;;504.13;476.60;;;8.40;31.90;;;;;;5031576;28;20530;-69
2022/10/03 21:44:57;;;;;;;101.10;95.47;;;8.40;31.60;;;;;;5035152;28;20410;-69
2022/10/03 21:47:48;;;;;;;370.67;349.90;;;8.50;31.30;;;;;;5035945;28;20415;-69
2022/10/03 21:50:39;;;;;;;614.50;584.47;;;8.30;32.90;;;;;;5035620;28;20574;-69
2022/10/03 21:53:27;;;;;;;326.97;310.57;;;8.40;32.50;;;;;;5035332;28;20869;-69
2022/10/03 21:56:11;;;;;;;378.83;359.47;;;8.30;31.70;;;;;;5035390;28;20459;-70
2022/10/03 21:58:39;;;;;;;141.73;133.77;;;8.20;32.00;;;;;;5035491;28;20402;-69
2022/10/03 22:01:34;;;;;;;353.67;336.63;;;8.20;32.20;;;;;;5033741;28;20531;-69
2022/10/03 22:04:19;;;;;;;290.40;273.47;;;8.10;32.10;;;;;;5035468;28;20402;-69
2022/10/03 22:07:00;;;;;;;186.27;175.87;;;8.00;33.30;;;;;;5035410;28;20410;-69
2022/10/03 22:09:26;;;;;;;472.27;447.80;;;8.00;33.50;;;;;;5035286;28;20468;-69
2022/10/03 22:11:57;;;;;;;462.87;437.10;;;7.90;34.00;;;;;;5034889;28;20413;-69
2022/10/03 22:14:44;;;;;;;208.90;197.60;;;7.80;34.40;;;;;;5035186;28;20779;-69
2022/10/03 22:17:28;;;;;;;477.27;453.53;;;7.80;34.00;;;;;;5035231;28;20543;-69
2022/10/03 22:20:18;;;;;;;135.23;128.43;;;7.80;34.80;;;;;;5034865;28;20930;-69
2022/10/03 22:22:47;;;;;;;508.23;482.97;;;7.80;34.80;;;;;;5027611;28;20473;-69
2022/10/03 22:25:32;;;;;;;528.33;501.87;;;7.80;33.90;;;;;;5034897;28;20499;-69
2022/10/03 22:28:31;;;;;;;190.30;180.90;;;7.80;33.90;;;;;;5033819;28;20413;-68
2022/10/03 22:31:05;;;;;;;162.23;155.13;;;7.70;35.30;;;;;;5032866;28;20468;-69
2022/10/03 22:33:49;;;;;;;161.50;154.77;;;7.60;35.50;;;;;;5014997;28;20437;-69
2022/10/03 22:36:18;;;;;;;349.50;332.63;;;7.60;35.10;;;;;;5014576;28;20464;-69
2022/10/03 22:38:45;;;;;;;377.20;357.83;;;7.60;35.10;;;;;;5014759;28;20415;-69
2022/10/03 22:41:15;;;;;;;515.13;490.87;;;7.60;36.00;;;;;;5014604;28;20817;-69
2022/10/03 22:43:42;;;;;;;293.83;280.20;;;7.50;36.00;;;;;;5013546;28;20423;-70
2022/10/03 22:46:13;;;;;;;358.63;342.43;;;7.60;35.60;;;;;;5014649;28;20429;-69
2022/10/03 22:48:45;;;;;;;525.07;498.47;;;7.60;35.60;;;;;;5014827;28;20446;-70
2022/10/03 22:51:14;;;;;;;580.50;552.00;;;7.60;35.10;;;;;;5014153;28;20446;-69
2022/10/03 22:53:46;;;;;;;213.87;203.37;;;7.60;35.10;;;;;;5014180;28;20896;-70
2022/10/03 22:56:45;;;;;;;613.17;583.47;;;7.60;35.00;;;;;;5014392;28;20427;-69
2022/10/03 22:59:22;;;;;;;223.30;213.40;;;7.70;34.70;;;;;;5014557;28;20411;-69
2022/10/03 23:01:50;;;;;;;556.60;529.80;;;7.60;34.10;;;;;;5014084;28;21059;-70
2022/10/03 23:04:34;;;;;;;110.97;106.07;;;7.60;34.50;;;;;;5014502;28;20411;-70
2022/10/03 23:07:12;;;;;;;550.87;524.33;;;7.50;34.10;;;;;;5014784;28;20548;-69
2022/10/03 23:10:12;;;;;;;331.57;315.87;;;7.40;35.00;;;;;;5014625;28;20421;-70
2022/10/03 23:12:50;;;;;;;179.87;171.33;;;7.40;34.60;;;;;;5013525;28;20423;-70
2022/10/03 23:15:18;;;;;;;568.00;541.20;;;7.40;34.10;;;;;;5014140;28;20443;-70
2022/10/03 23:17:47;;;;;;;600.50;571.87;;;7.40;33.50;;;;;;5014201;28;20419;-70
2022/10/03 23:20:37;;;;;;;120.47;114.83;;;7.40;33.60;;;;;;5014099;28;20422;-69
2022/10/03 23:23:32;;;;;;;351.67;335.37;;;7.30;34.50;;;;;;5013799;28;20461;-69
2022/10/03 23:26:39;;;;;;;222.20;212.40;;;7.30;34.90;;;;;;5029909;28;20439;-69
2022/10/03 23:29:05;;;;;;;361.27;344.57;;;7.20;34.80;;;;;;5014024;28;20418;-70
2022/10/03 23:32:04;;;;;;;416.27;396.57;;;7.10;35.40;;;;;;5013525;28;20418;-69
2022/10/03 23:34:35;;;;;;;190.60;181.83;;;7.10;36.40;;;;;;5045516;28;20561;-69
2022/10/03 23:37:10;;;;;;;106.07;100.67;;;7.00;37.50;;;;;;5012502;28;20830;-70
2022/10/03 23:39:37;;;;;;;314.80;300.97;;;7.00;37.10;;;;;;5013664;28;20480;-69
2022/10/03 23:42:38;;;;;;;302.37;287.60;;;6.90;37.00;;;;;;5013334;28;20549;-69
2022/10/03 23:45:09;;;;;;;33.60;31.40;;;6.90;36.50;;;;;;4960070;28;20885;-69
2022/10/03 23:47:57;;;;;;;221.50;210.83;;;6.90;36.10;;;;;;5013672;28;21087;-69
2022/10/03 23:50:34;;;;;;;255.60;243.17;;;6.90;37.10;;;;;;5013660;28;20414;-69
2022/10/03 23:53:00;;;;;;;505.47;480.80;;;6.90;37.70;;;;;;5013306;28;20614;-69
2022/10/03 23:55:33;;;;;;;487.73;464.77;;;6.90;38.00;;;;;;5013434;28;20435;-69
2022/10/03 23:57:59;;;;;;;58.20;55.00;;;6.90;38.10;;;;;;5013428;28;20791;-69
